Time;durP1;ratioP1;P1;durP2;ratioP2;P2;SDS_P1;SDS_P2;PMS_P1;PMS_P2;Temp;Humidity;BMP_temperature;BMP_pressure;BME280_temperature;BME280_humidity;BME280_pressure;Samples;Min_cycle;Max_cycle;Signal;HPM_P1;HPM_P2
2022/10/11 00:00:40;;;;;;;;;;;20.00;66.70;;;;;;10359129;28;20168;-40
2022/10/11 00:05:44;;;;;;;6.67;0.83;;;19.90;66.20;;;;;;10357587;28;20594;-42
2022/10/11 00:10:55;;;;;;;1.88;0.63;;;19.80;66.20;;;;;;10358693;28;20064;-45
2022/10/11 00:15:57;;;;;;;3.45;0.95;;;19.90;66.30;;;;;;10358348;28;20479;-43
2022/10/11 00:21:06;;;;;;;5.43;0.80;;;19.90;66.30;;;;;;10356340;28;20141;-40
2022/10/11 00:26:09;;;;;;;4.82;0.75;;;19.90;66.10;;;;;;10357366;28;20463;-40
2022/10/11 00:31:13;;;;;;;2.00;0.57;;;19.90;66.10;;;;;;10356206;28;20064;-43
2022/10/11 00:36:17;;;;;;;3.80;1.00;;;19.90;66.10;;;;;;10355641;28;20077;-38
2022/10/11 00:41:19;;;;;;;2.30;0.77;;;19.90;66.20;;;;;;10352718;28;20053;-41
2022/10/11 00:46:31;;;;;;;5.93;1.10;;;19.80;66.00;;;;;;10354547;28;20080;-39
2022/10/11 00:51:41;;;;;;;;;;;19.90;65.90;;;;;;10355635;28;20740;-41
2022/10/11 00:56:48;;;;;;;3.72;0.90;;;19.80;66.20;;;;;;10351550;28;20305;-42
2022/10/11 01:01:51;;;;;;;3.45;0.70;;;19.80;66.10;;;;;;10353920;28;20044;-41
2022/10/11 01:06:54;;;;;;;;;;;19.90;66.10;;;;;;10345860;28;20345;-38
2022/10/11 01:11:59;;;;;;;3.20;0.93;;;19.80;65.90;;;;;;10355586;28;19925;-40
2022/10/11 01:17:08;;;;;;;5.55;1.08;;;19.80;66.20;;;;;;10354697;28;20124;-42
2022/10/11 01:22:30;;;;;;;3.58;1.17;;;19.80;65.90;;;;;;10356325;28;20048;-41
2022/10/11 01:27:48;;;;;;;3.30;0.68;;;19.70;66.00;;;;;;10355267;28;20046;-38
2022/10/11 01:33:06;;;;;;;3.80;0.70;;;19.80;66.00;;;;;;10355197;28;20077;-40
2022/10/11 01:38:14;;;;;;;3.20;0.75;;;19.80;66.10;;;;;;10354299;28;20077;-39
2022/10/11 01:43:18;;;;;;;1.52;0.82;;;19.80;65.90;;;;;;10353595;28;20511;-37
2022/10/11 01:48:21;;;;;;;4.45;0.85;;;19.70;65.90;;;;;;10354827;28;20842;-39
2022/10/11 01:53:52;;;;;;;4.53;0.90;;;19.80;66.10;;;;;;10355582;28;20144;-40
2022/10/11 01:59:11;;;;;;;2.63;0.80;;;19.80;66.00;;;;;;10355217;28;20077;-39
2022/10/11 02:04:23;;;;;;;5.65;0.70;;;19.70;66.10;;;;;;10356127;28;20613;-39
2022/10/11 02:09:33;;;;;;;2.88;0.60;;;19.70;66.20;;;;;;10360027;28;20100;-39
2022/10/11 02:14:39;;;;;;;5.43;0.80;;;19.70;66.30;;;;;;10360352;28;20208;-40
2022/10/11 02:19:46;;;;;;;2.58;0.70;;;19.70;66.10;;;;;;10360238;28;20046;-38
2022/10/11 02:24:51;;;;;;;2.53;0.70;;;19.70;66.10;;;;;;10360983;28;20088;-44
2022/10/11 02:29:56;;;;;;;5.00;0.70;;;19.70;66.40;;;;;;10360636;28;20081;-38
2022/10/11 02:35:01;;;;;;;3.00;0.77;;;19.70;66.10;;;;;;10358997;28;20050;-38
2022/10/11 02:40:10;;;;;;;1.52;0.55;;;19.70;66.10;;;;;;10359593;28;20127;-40
2022/10/11 02:45:18;;;;;;;3.60;0.63;;;19.70;66.10;;;;;;10359380;28;20056;-40
2022/10/11 02:50:21;;;;;;;3.55;0.85;;;19.70;66.30;;;;;;10358889;28;20058;-40
2022/10/11 02:55:23;;;;;;;1.75;0.52;;;19.60;66.10;;;;;;10359438;28;20048;-39
2022/10/11 03:00:25;;;;;;;2.65;0.80;;;19.50;66.10;;;;;;10358232;28;20042;-41
2022/10/11 03:05:29;;;;;;;4.20;0.68;;;19.60;66.10;;;;;;10358698;28;20086;-40
2022/10/11 03:10:32;;;;;;;2.30;0.63;;;19.60;66.20;;;;;;10358657;28;20136;-41
2022/10/11 03:15:35;;;;;;;2.80;0.80;;;19.60;66.10;;;;;;10358704;28;20556;-38
2022/10/11 03:20:38;;;;;;;6.50;0.82;;;19.50;66.40;;;;;;10358207;28;20054;-40
2022/10/11 03:25:40;;;;;;;2.60;1.13;;;19.60;66.10;;;;;;10356562;28;20065;-43
2022/10/11 03:30:42;;;;;;;2.70;0.70;;;19.40;66.50;;;;;;10358108;28;20495;-41
2022/10/11 03:35:46;;;;;;;2.10;0.55;;;19.60;66.20;;;;;;10356803;28;20119;-42
2022/10/11 03:40:49;;;;;;;2.15;0.70;;;19.50;66.40;;;;;;10356202;28;20514;-39
2022/10/11 03:45:50;;;;;;;4.25;1.20;;;19.50;66.30;;;;;;10356986;28;20136;-41
2022/10/11 03:50:54;;;;;;;4.80;1.05;;;19.50;66.20;;;;;;10356009;28;20183;-37
2022/10/11 03:55:56;;;;;;;3.00;1.00;;;19.50;66.10;;;;;;10357961;28;20175;-42
2022/10/11 04:00:58;;;;;;;1.45;0.50;;;19.50;66.20;;;;;;10356335;28;20060;-41
2022/10/11 04:06:02;;;;;;;3.03;0.73;;;19.50;66.20;;;;;;10356358;28;20057;-39
2022/10/11 04:11:04;;;;;;;3.35;1.17;;;19.50;66.20;;;;;;10356458;28;20160;-41
2022/10/11 04:16:06;;;;;;;;;;;19.40;66.20;;;;;;10356618;28;20137;-40
2022/10/11 04:21:10;;;;;;;4.93;1.27;;;19.40;66.20;;;;;;10354385;28;20016;-40
2022/10/11 04:26:12;;;;;;;2.88;0.80;;;19.40;66.10;;;;;;10353171;28;20527;-42
2022/10/11 04:31:14;;;;;;;7.30;1.45;;;19.40;66.20;;;;;;10350795;28;20479;-41
2022/10/11 04:36:17;;;;;;;;;;;19.40;66.20;;;;;;10354646;28;20037;-45
2022/10/11 04:41:19;;;;;;;5.85;1.42;;;19.30;66.40;;;;;;10353113;28;20317;-42
2022/10/11 04:46:21;;;;;;;4.55;1.10;;;19.30;66.40;;;;;;10353038;28;20512;-38
2022/10/11 04:51:26;;;;;;;3.50;0.85;;;19.30;66.10;;;;;;10352000;28;20076;-41
2022/10/11 04:56:29;;;;;;;2.25;0.98;;;19.40;66.10;;;;;;10350660;28;20081;-43
2022/10/11 05:01:31;;;;;;;3.13;1.23;;;19.40;66.20;;;;;;10353468;28;20046;-42
2022/10/11 05:06:35;;;;;;;2.15;1.10;;;19.20;66.40;;;;;;10352103;28;20129;-41
2022/10/11 05:11:38;;;;;;;2.72;1.23;;;19.30;66.40;;;;;;10350015;28;20149;-41
2022/10/11 05:16:40;;;;;;;5.65;1.23;;;19.30;66.50;;;;;;10353178;28;20554;-40
2022/10/11 05:21:43;;;;;;;2.25;1.10;;;19.10;66.60;;;;;;10343428;28;20140;-38
2022/10/11 05:26:45;;;;;;;3.33;1.20;;;19.40;66.60;;;;;;10349021;28;20050;-37
2022/10/11 05:31:47;;;;;;;2.88;1.05;;;19.30;66.80;;;;;;10350085;28;20049;-40
2022/10/11 05:36:51;;;;;;;5.20;1.10;;;19.40;66.60;;;;;;10357232;28;20078;-39
2022/10/11 05:41:52;;;;;;;4.20;1.20;;;19.30;66.90;;;;;;10359646;28;20103;-39
2022/10/11 05:46:54;;;;;;;5.13;1.10;;;19.40;67.10;;;;;;10358424;28;20151;-39
2022/10/11 05:51:58;;;;;;;3.28;1.30;;;19.10;67.00;;;;;;10356295;28;20144;-41
2022/10/11 05:57:00;;;;;;;2.22;1.23;;;19.30;67.10;;;;;;10355867;28;20068;-41
2022/10/11 06:02:02;;;;;;;3.85;1.20;;;19.30;67.20;;;;;;10358318;28;20049;-41
2022/10/11 06:07:05;;;;;;;4.68;1.58;;;19.30;67.10;;;;;;10360039;28;20096;-41
2022/10/11 06:12:07;;;;;;;2.67;0.80;;;19.30;67.20;;;;;;10359400;28;20049;-43
2022/10/11 06:17:09;;;;;;;3.20;1.15;;;19.30;67.20;;;;;;10359571;28;20143;-43
2022/10/11 06:22:12;;;;;;;3.83;1.33;;;19.30;67.10;;;;;;10357777;28;20077;-39
2022/10/11 06:27:14;;;;;;;4.18;1.65;;;19.30;67.20;;;;;;10357737;28;20049;-40
2022/10/11 06:32:16;;;;;;;5.07;1.38;;;19.30;67.50;;;;;;10358545;28;20116;-42
2022/10/11 06:37:20;;;;;;;8.13;1.45;;;19.30;67.60;;;;;;10350429;28;20182;-40
2022/10/11 06:42:22;;;;;;;4.40;1.40;;;19.30;67.70;;;;;;10353923;28;20140;-39
2022/10/11 06:47:24;;;;;;;2.75;1.00;;;19.40;67.80;;;;;;10354672;28;20073;-40
2022/10/11 06:52:27;;;;;;;2.17;0.93;;;19.40;67.80;;;;;;10354301;28;20071;-42
2022/10/11 06:57:29;;;;;;;8.35;1.13;;;19.50;68.00;;;;;;10357707;28;20410;-38
2022/10/11 07:02:30;;;;;;;5.15;1.40;;;19.00;67.70;;;;;;10358031;28;20491;-46
2022/10/11 07:07:34;;;;;;;7.18;1.50;;;19.40;67.80;;;;;;10357909;28;20642;-40
2022/10/11 07:12:36;;;;;;;4.22;1.10;;;19.60;67.90;;;;;;10356635;28;20144;-38
2022/10/11 07:17:38;;;;;;;4.38;1.17;;;19.50;67.80;;;;;;10357299;28;20067;-42
2022/10/11 07:22:41;;;;;;;4.57;1.45;;;19.40;67.80;;;;;;10355972;28;20136;-42
2022/10/11 07:27:42;;;;;;;5.47;1.27;;;19.40;67.80;;;;;;10355442;28;20080;-41
2022/10/11 07:32:44;;;;;;;4.00;1.17;;;19.30;67.80;;;;;;10355501;28;20434;-41
2022/10/11 07:37:47;;;;;;;5.88;1.10;;;19.50;67.70;;;;;;10355783;28;20561;-43
2022/10/11 07:42:50;;;;;;;2.30;1.10;;;19.40;67.60;;;;;;10356644;28;20053;-39
2022/10/11 07:47:51;;;;;;;4.75;1.20;;;19.40;67.60;;;;;;10354196;28;20046;-41
2022/10/11 07:52:55;;;;;;;3.53;1.13;;;19.40;67.50;;;;;;10355413;28;20053;-41
2022/10/11 07:57:57;;;;;;;4.18;1.45;;;19.40;67.40;;;;;;10356176;28;20050;-40
2022/10/11 08:03:01;;;;;;;;;;;19.40;67.40;;;;;;10355770;28;20081;-40
2022/10/11 08:08:05;;;;;;;2.42;1.10;;;19.40;67.30;;;;;;10353741;28;19956;-40
2022/10/11 08:13:07;;;;;;;3.92;1.33;;;19.40;67.30;;;;;;10345728;28;20137;-46
2022/10/11 08:18:09;;;;;;;2.25;1.02;;;19.40;67.30;;;;;;10351751;28;20418;-38
2022/10/11 08:23:13;;;;;;;5.38;1.40;;;19.90;67.90;;;;;;10354344;28;20133;-42
2022/10/11 08:28:16;;;;;;;5.88;1.30;;;19.10;67.20;;;;;;10353715;28;20517;-37
2022/10/11 08:33:18;;;;;;;7.32;1.30;;;19.00;69.10;;;;;;10353333;28;20137;-43
2022/10/11 08:38:22;;;;;;;5.43;1.30;;;19.20;67.80;;;;;;10353770;28;20057;-39
2022/10/11 08:43:36;;;;;;;5.28;0.90;;;19.40;67.50;;;;;;10353572;28;20116;-41
2022/10/11 08:48:41;;;;;;;3.30;1.17;;;19.40;66.80;;;;;;10351473;28;20498;-44
2022/10/11 08:53:50;;;;;;;8.77;1.40;;;19.40;66.80;;;;;;10352414;28;20041;-42
2022/10/11 08:58:58;;;;;;;7.05;1.10;;;19.30;67.10;;;;;;10355171;28;20233;-39
2022/10/11 09:04:02;;;;;;;6.13;0.95;;;19.20;66.80;;;;;;10354274;28;20132;-46
2022/10/11 09:09:31;;;;;;;6.05;1.33;;;19.30;66.80;;;;;;10352257;28;20042;-40
2022/10/11 09:14:46;;;;;;;7.50;1.05;;;19.30;66.70;;;;;;10353346;28;20140;-42
2022/10/11 09:20:17;;;;;;;2.72;1.10;;;19.40;66.60;;;;;;10353572;28;20133;-42
2022/10/11 09:25:26;;;;;;;7.80;1.08;;;19.40;66.20;;;;;;10343465;28;20414;-38
2022/10/11 09:30:28;;;;;;;3.70;1.20;;;19.40;66.10;;;;;;10351876;28;20042;-38
2022/10/11 09:35:36;;;;;;;3.70;0.93;;;19.30;66.50;;;;;;10353337;28;20140;-41
2022/10/11 09:40:50;;;;;;;2.75;0.80;;;19.20;67.10;;;;;;10350216;28;20233;-46
2022/10/11 09:45:52;;;;;;;4.75;0.90;;;19.60;66.60;;;;;;10353092;28;20494;-46
2022/10/11 09:51:00;;;;;;;5.60;1.30;;;19.40;66.40;;;;;;10353279;28;20169;-43
2022/10/11 09:56:04;;;;;;;3.50;0.93;;;19.30;66.10;;;;;;10351939;28;20053;-37
2022/10/11 10:01:08;;;;;;;3.50;0.65;;;19.50;65.60;;;;;;10351578;28;20132;-44
2022/10/11 10:06:15;;;;;;;5.95;0.88;;;20.10;65.70;;;;;;10351455;28;20054;-44
2022/10/11 10:11:19;;;;;;;7.03;1.05;;;19.70;65.40;;;;;;10351455;28;20480;-47
2022/10/11 10:16:24;;;;;;;7.10;1.40;;;19.60;66.10;;;;;;10351906;28;20056;-47
2022/10/11 10:21:30;;;;;;;3.28;0.85;;;19.70;65.40;;;;;;10355201;28;20125;-45
2022/10/11 10:26:33;;;;;;;9.18;1.10;;;19.20;66.90;;;;;;10358777;28;20053;-41
2022/10/11 10:31:38;;;;;;;2.40;0.80;;;18.80;67.50;;;;;;10358685;28;20048;-41
2022/10/11 10:36:46;;;;;;;7.32;1.13;;;19.40;66.50;;;;;;10359363;28;20221;-40
2022/10/11 10:41:49;;;;;;;10.13;2.25;;;19.00;68.00;;;;;;10358375;28;20046;-40
2022/10/11 10:47:01;;;;;;;7.82;2.33;;;18.90;63.90;;;;;;10357151;28;20136;-40
2022/10/11 10:52:40;;;;;;;2.75;1.00;;;19.50;65.40;;;;;;10358238;28;20422;-45
2022/10/11 10:57:57;;;;;;;6.55;1.90;;;19.60;65.20;;;;;;10357340;28;20112;-42
2022/10/11 11:03:02;;;;;;;9.48;1.52;;;19.10;65.00;;;;;;10356956;28;20858;-43
2022/10/11 11:08:11;;;;;;;6.57;1.15;;;18.30;69.10;;;;;;10355585;28;20797;-39
2022/10/11 11:13:22;;;;;;;2.88;0.75;;;18.30;67.50;;;;;;10356805;28;20482;-39
2022/10/11 11:18:29;;;;;;;6.35;1.60;;;19.30;66.70;;;;;;10356524;28;20134;-40
2022/10/11 11:23:40;;;;;;;2.38;0.80;;;19.30;66.50;;;;;;10357074;28;20044;-41
2022/10/11 11:28:57;;;;;;;9.10;1.73;;;19.10;63.80;;;;;;10357632;28;20566;-40
2022/10/11 11:34:07;;;;;;;7.82;1.70;;;19.20;66.30;;;;;;10354168;28;20058;-42
2022/10/11 11:39:16;;;;;;;6.43;0.90;;;18.90;66.30;;;;;;10356709;28;20144;-42
2022/10/11 11:44:24;;;;;;;6.78;0.98;;;18.90;67.90;;;;;;10357001;28;20049;-44
2022/10/11 11:49:31;;;;;;;8.52;1.42;;;18.80;62.80;;;;;;10356114;28;20092;-39
2022/10/11 11:54:45;;;;;;;6.55;1.02;;;19.40;64.50;;;;;;10353946;28;20153;-44
2022/10/11 11:59:56;;;;;;;6.13;1.10;;;19.30;64.80;;;;;;10355403;28;20139;-41
2022/10/11 12:04:59;;;;;;;2.33;0.80;;;19.30;65.00;;;;;;10355192;28;20054;-38
2022/10/11 12:10:18;;;;;;;5.82;1.38;;;19.60;65.20;;;;;;10355176;28;20053;-39
2022/10/11 12:15:25;;;;;;;2.95;0.88;;;19.10;63.10;;;;;;10353826;28;20061;-41
2022/10/11 12:20:30;;;;;;;6.40;1.15;;;19.30;66.60;;;;;;10354989;28;20111;-39
2022/10/11 12:25:43;;;;;;;5.22;1.08;;;19.60;65.30;;;;;;10353368;28;20050;-41
2022/10/11 12:31:05;;;;;;;5.55;0.85;;;19.80;65.20;;;;;;10353935;28;20433;-41
2022/10/11 12:36:22;;;;;;;5.67;1.00;;;19.50;66.60;;;;;;10354422;28;20046;-39
2022/10/11 12:41:49;;;;;;;4.43;1.10;;;19.60;66.60;;;;;;10354132;28;20046;-41
2022/10/11 12:47:27;;;;;;;8.45;1.33;;;18.90;67.20;;;;;;10353736;28;20054;-40
2022/10/11 12:52:39;;;;;;;7.20;0.93;;;19.50;66.20;;;;;;10354120;28;20053;-39
2022/10/11 12:57:58;;;;;;;5.83;1.00;;;19.60;64.20;;;;;;10351740;28;20428;-40
2022/10/11 13:03:02;;;;;;;9.50;1.38;;;19.60;65.30;;;;;;10352104;28;20060;-42
2022/10/11 13:08:09;;;;;;;6.53;0.82;;;18.50;64.60;;;;;;10352922;28;20851;-41
2022/10/11 13:13:21;;;;;;;5.28;0.80;;;19.80;64.50;;;;;;10353408;28;20152;-40
2022/10/11 13:18:25;;;;;;;9.93;2.17;;;19.90;65.30;;;;;;10353451;28;20057;-42
2022/10/11 13:23:29;;;;;;;3.65;1.13;;;20.40;63.90;;;;;;10352855;28;20119;-42
2022/10/11 13:28:31;;;;;;;4.60;0.88;;;20.20;64.50;;;;;;10350556;28;20136;-40
2022/10/11 13:33:39;;;;;;;5.13;0.98;;;20.60;63.40;;;;;;10352704;28;20145;-40
2022/10/11 13:38:41;;;;;;;6.95;0.90;;;20.40;64.30;;;;;;10352193;28;20251;-42
2022/10/11 13:43:43;;;;;;;9.95;1.40;;;20.60;63.40;;;;;;10351710;28;20466;-39
2022/10/11 13:48:57;;;;;;;10.43;1.23;;;20.50;64.00;;;;;;10353055;28;20125;-40
2022/10/11 13:54:01;;;;;;;6.47;0.90;;;20.20;60.30;;;;;;10352777;28;20085;-40
2022/10/11 13:59:04;;;;;;;5.03;1.20;;;20.70;63.80;;;;;;10358578;28;20042;-40
2022/10/11 14:04:10;;;;;;;7.00;1.25;;;20.50;64.30;;;;;;10360574;28;20062;-39
2022/10/11 14:09:21;;;;;;;6.93;0.90;;;20.90;62.20;;;;;;10358894;28;20090;-41
2022/10/11 14:14:39;;;;;;;6.23;1.17;;;20.90;63.30;;;;;;10359618;28;20140;-39
2022/10/11 14:19:44;;;;;;;5.57;1.23;;;21.00;63.20;;;;;;10360868;28;20058;-38
2022/10/11 14:24:47;;;;;;;3.58;0.80;;;21.10;62.80;;;;;;10356872;28;21516;-38
2022/10/11 14:29:50;;;;;;;7.28;0.95;;;21.20;62.60;;;;;;10359050;28;20057;-34
2022/10/11 14:34:53;;;;;;;;;;;21.20;63.80;;;;;;10359738;28;20503;-40
2022/10/11 14:39:54;;;;;;;4.28;0.90;;;21.30;62.80;;;;;;10356036;28;20004;-37
2022/10/11 14:44:57;;;;;;;6.35;1.20;;;21.20;62.80;;;;;;10358707;28;20084;-37
2022/10/11 14:50:00;;;;;;;3.38;0.77;;;21.30;62.70;;;;;;10357675;28;20145;-41
2022/10/11 14:55:02;;;;;;;5.38;1.10;;;21.20;62.70;;;;;;10355245;28;20144;-40
2022/10/11 15:00:04;;;;;;;8.02;1.05;;;21.40;62.40;;;;;;10356324;28;20069;-41
2022/10/11 15:05:08;;;;;;;5.43;0.95;;;21.40;62.60;;;;;;10355144;28;20070;-39
2022/10/11 15:10:20;;;;;;;5.57;0.70;;;21.50;62.40;;;;;;10355284;28;20050;-39
2022/10/11 15:15:24;;;;;;;6.50;0.75;;;21.50;62.20;;;;;;10354973;28;20053;-40
2022/10/11 15:20:30;;;;;;;2.08;0.73;;;21.50;62.10;;;;;;10354097;28;20837;-37
2022/10/11 15:25:32;;;;;;;6.13;1.08;;;21.50;62.00;;;;;;10356571;28;20080;-44
2022/10/11 15:30:36;;;;;;;5.63;0.63;;;21.60;61.80;;;;;;10352802;28;20136;-39
2022/10/11 15:35:39;;;;;;;6.20;0.60;;;21.60;61.70;;;;;;10353670;28;20050;-38
2022/10/11 15:40:41;;;;;;;3.80;2.33;;;21.60;61.10;;;;;;10352989;28;20077;-39
2022/10/11 15:45:43;;;;;;;3.22;1.13;;;21.50;60.70;;;;;;10351096;28;20563;-40
2022/10/11 15:50:46;;;;;;;;;;;21.60;60.80;;;;;;10351232;28;20131;-39
2022/10/11 15:55:51;;;;;;;8.30;1.85;;;21.70;60.70;;;;;;10352796;28;19925;-37
2022/10/11 16:00:55;;;;;;;4.63;1.20;;;21.80;60.80;;;;;;10351550;28;20066;-39
2022/10/11 16:05:59;;;;;;;6.32;0.90;;;21.70;60.80;;;;;;10353329;28;20049;-40
2022/10/11 16:11:01;;;;;;;5.20;1.38;;;21.70;60.60;;;;;;10352179;28;20085;-38
2022/10/11 16:16:03;;;;;;;;;;;21.70;60.50;;;;;;10352644;28;20060;-39
2022/10/11 16:21:08;;;;;;;14.38;1.70;;;21.70;60.40;;;;;;10351109;28;19960;-40
2022/10/11 16:26:15;;;;;;;5.03;1.27;;;21.70;60.80;;;;;;10351353;28;20078;-39
2022/10/11 16:31:19;;;;;;;10.20;1.80;;;21.80;60.70;;;;;;10350376;28;20410;-40
2022/10/11 16:36:34;;;;;;;6.90;1.58;;;21.80;61.20;;;;;;10350426;28;20057;-39
2022/10/11 16:41:36;;;;;;;13.30;1.70;;;21.90;61.60;;;;;;10352597;28;20050;-40
2022/10/11 16:46:38;;;;;;;10.70;2.00;;;21.80;61.90;;;;;;10351828;28;20054;-38
2022/10/11 16:51:42;;;;;;;14.07;2.15;;;21.80;62.00;;;;;;10348222;28;20474;-39
2022/10/11 16:56:46;;;;;;;12.77;1.58;;;21.90;62.10;;;;;;10350805;28;20062;-39
2022/10/11 17:01:48;;;;;;;10.00;1.98;;;21.80;62.30;;;;;;10349483;28;20056;-39
2022/10/11 17:06:53;;;;;;;9.82;2.95;;;21.80;62.30;;;;;;10352291;28;20124;-39
2022/10/11 17:11:55;;;;;;;16.73;2.20;;;21.80;62.60;;;;;;10351059;28;20514;-37
2022/10/11 17:16:57;;;;;;;15.30;1.83;;;21.70;62.90;;;;;;10351553;28;20053;-39
2022/10/11 17:22:00;;;;;;;9.02;1.92;;;21.70;63.20;;;;;;10352173;28;20084;-41
2022/10/11 17:27:02;;;;;;;6.15;1.50;;;21.70;63.40;;;;;;10352320;28;20056;-40
2022/10/11 17:32:04;;;;;;;8.15;1.73;;;21.70;63.50;;;;;;10350925;28;20054;-38
2022/10/11 17:37:08;;;;;;;8.02;1.45;;;21.70;63.40;;;;;;10351378;28;20050;-38
2022/10/11 17:42:10;;;;;;;10.48;2.55;;;21.60;63.70;;;;;;10350090;28;20516;-37
2022/10/11 17:47:13;;;;;;;9.45;1.70;;;21.80;63.80;;;;;;10349428;28;20077;-39
2022/10/11 17:52:17;;;;;;;7.53;1.73;;;21.50;63.70;;;;;;10350122;28;20058;-38
2022/10/11 17:57:19;;;;;;;9.02;1.45;;;21.50;63.90;;;;;;10350221;28;20061;-38
2022/10/11 18:02:20;;;;;;;8.30;1.63;;;21.50;63.90;;;;;;10348225;28;20141;-39
2022/10/11 18:07:24;;;;;;;7.70;1.35;;;21.40;64.00;;;;;;10351319;28;20073;-41
2022/10/11 18:12:25;;;;;;;9.90;2.05;;;21.40;64.20;;;;;;10351715;28;20050;-39
2022/10/11 18:17:27;;;;;;;5.30;2.40;;;21.40;64.20;;;;;;10351755;28;20149;-38
2022/10/11 18:22:31;;;;;;;6.90;2.15;;;21.30;64.40;;;;;;10350916;28;20201;-38
2022/10/11 18:27:32;;;;;;;8.25;2.40;;;21.30;64.60;;;;;;10349854;28;20096;-38
2022/10/11 18:32:34;;;;;;;4.30;2.80;;;21.30;64.80;;;;;;10349300;28;20046;-38
2022/10/11 18:37:38;;;;;;;8.60;3.28;;;21.30;65.00;;;;;;10350215;28;20997;-38
2022/10/11 18:42:39;;;;;;;9.38;3.65;;;21.30;65.10;;;;;;10352583;28;20132;-37
2022/10/11 18:47:41;;;;;;;10.57;3.10;;;21.30;65.30;;;;;;10357229;28;20069;-39
2022/10/11 18:52:47;;;;;;;16.00;4.28;;;21.30;65.20;;;;;;10353250;28;20096;-39
2022/10/11 18:57:48;;;;;;;10.77;3.47;;;21.30;65.40;;;;;;10354054;28;20045;-38
2022/10/11 19:02:50;;;;;;;9.30;3.30;;;21.30;65.50;;;;;;10356216;28;20152;-38
2022/10/11 19:07:54;;;;;;;7.68;3.97;;;21.20;65.50;;;;;;10354165;28;20096;-41
2022/10/11 19:12:55;;;;;;;8.40;3.72;;;21.20;65.60;;;;;;10354375;28;20148;-37
2022/10/11 19:17:57;;;;;;;12.20;4.80;;;21.20;65.70;;;;;;10353586;28;20461;-39
2022/10/11 19:23:00;;;;;;;11.13;4.60;;;21.20;65.70;;;;;;10354518;28;20070;-37
2022/10/11 19:28:02;;;;;;;15.10;5.65;;;21.20;65.80;;;;;;10353982;28;20533;-38
2022/10/11 19:33:04;;;;;;;14.23;5.07;;;21.10;65.80;;;;;;10354555;28;20081;-38
2022/10/11 19:38:07;;;;;;;16.13;6.07;;;21.10;65.80;;;;;;10354813;28;20571;-40
2022/10/11 19:43:09;;;;;;;13.20;5.00;;;21.10;65.60;;;;;;10354156;28;20045;-39
2022/10/11 19:48:12;;;;;;;15.02;5.40;;;21.00;65.70;;;;;;10350805;28;20226;-39
2022/10/11 19:53:15;;;;;;;15.18;5.60;;;21.00;65.60;;;;;;10352092;28;20038;-38
2022/10/11 19:58:18;;;;;;;20.77;5.18;;;21.00;65.50;;;;;;10353230;28;20042;-39
2022/10/11 20:03:20;;;;;;;13.52;5.53;;;21.00;66.20;;;;;;10353487;28;20077;-39
2022/10/11 20:08:23;;;;;;;12.63;5.78;;;20.70;65.50;;;;;;10352267;28;20125;-37
2022/10/11 20:13:25;;;;;;;21.83;7.20;;;20.90;65.70;;;;;;10352817;28;20131;-38
2022/10/11 20:18:28;;;;;;;18.55;6.00;;;20.90;65.70;;;;;;10352266;28;20434;-38
2022/10/11 20:23:32;;;;;;;21.88;6.47;;;20.80;65.70;;;;;;10351767;28;20061;-38
2022/10/11 20:28:35;;;;;;;19.85;4.93;;;20.80;65.70;;;;;;10353498;28;20052;-38
2022/10/11 20:33:37;;;;;;;19.73;6.68;;;20.90;65.50;;;;;;10353649;28;20077;-38
2022/10/11 20:38:42;;;;;;;17.30;6.32;;;21.10;65.70;;;;;;10353234;28;20132;-39
2022/10/11 20:43:44;;;;;;;21.00;6.97;;;20.90;65.40;;;;;;10352789;28;20801;-37
2022/10/11 20:48:49;;;;;;;;;;;20.80;65.40;;;;;;10352956;28;20157;-38
2022/10/11 20:53:53;;;;;;;21.92;6.43;;;20.80;65.50;;;;;;10351315;28;20633;-37
2022/10/11 20:58:56;;;;;;;11.15;5.22;;;20.80;65.50;;;;;;10353238;28;20049;-36
2022/10/11 21:03:59;;;;;;;20.95;6.18;;;20.80;65.60;;;;;;10352324;28;20132;-35
2022/10/11 21:09:03;;;;;;;16.23;5.63;;;20.80;65.50;;;;;;10352606;28;20073;-40
2022/10/11 21:14:06;;;;;;;16.63;6.57;;;20.70;65.50;;;;;;10348217;28;20149;-37
2022/10/11 21:19:12;;;;;;;19.55;6.32;;;20.70;65.50;;;;;;10350518;28;20053;-39
2022/10/11 21:24:16;;;;;;;14.98;6.20;;;20.70;65.60;;;;;;10353895;28;20805;-39
2022/10/11 21:29:18;;;;;;;15.23;6.18;;;20.70;65.60;;;;;;10352748;28;20136;-38
2022/10/11 21:34:19;;;;;;;20.02;7.28;;;20.70;65.50;;;;;;10352558;28;20848;-44
2022/10/11 21:39:23;;;;;;;19.90;5.93;;;20.70;65.50;;;;;;10353991;28;20536;-39
2022/10/11 21:44:25;;;;;;;19.77;6.82;;;20.60;65.50;;;;;;10341997;28;20132;-36
2022/10/11 21:49:26;;;;;;;13.02;6.32;;;20.70;65.50;;;;;;10347516;28;20057;-38
2022/10/11 21:54:30;;;;;;;17.63;7.30;;;20.70;65.50;;;;;;10352905;28;20161;-37
2022/10/11 21:59:31;;;;;;;18.60;6.22;;;20.60;65.50;;;;;;10352662;28;20077;-39
2022/10/11 22:04:34;;;;;;;13.75;5.13;;;20.50;65.50;;;;;;10354423;28;20086;-39
2022/10/11 22:09:37;;;;;;;17.45;5.97;;;20.60;65.50;;;;;;10348621;28;20053;-38
2022/10/11 22:14:39;;;;;;;15.13;5.70;;;20.50;65.30;;;;;;10350029;28;20136;-37
2022/10/11 22:19:41;;;;;;;10.55;5.32;;;20.50;65.30;;;;;;10359011;28;20452;-39
2022/10/11 22:24:44;;;;;;;17.98;6.35;;;20.50;65.40;;;;;;10356609;28;20069;-38
2022/10/11 22:29:46;;;;;;;13.43;4.70;;;20.50;65.30;;;;;;10358786;28;20613;-39
2022/10/11 22:34:48;;;;;;;10.60;4.70;;;20.50;65.30;;;;;;10357138;28;20064;-38
2022/10/11 22:39:51;;;;;;;13.10;5.30;;;20.50;65.30;;;;;;10359174;28;20149;-35
2022/10/11 22:44:53;;;;;;;12.30;5.78;;;20.50;65.20;;;;;;10357240;28;20142;-38
2022/10/11 22:49:55;;;;;;;12.80;5.18;;;20.40;65.30;;;;;;10357281;28;20128;-38
2022/10/11 22:54:58;;;;;;;12.05;5.15;;;20.40;65.20;;;;;;10357241;28;20061;-34
2022/10/11 23:00:00;;;;;;;15.55;4.18;;;20.40;65.20;;;;;;10360448;28;20133;-39
2022/10/11 23:05:02;;;;;;;12.98;4.40;;;20.40;65.20;;;;;;10361340;28;20050;-39
2022/10/11 23:10:06;;;;;;;16.27;5.28;;;20.40;65.20;;;;;;10358315;28;20054;-39
2022/10/11 23:15:09;;;;;;;15.95;4.32;;;20.30;65.20;;;;;;10355987;28;20133;-39
2022/10/11 23:20:11;;;;;;;10.73;4.03;;;20.40;65.10;;;;;;10356532;28;20105;-40
2022/10/11 23:25:15;;;;;;;11.63;4.13;;;20.30;65.10;;;;;;10355655;28;20093;-39
2022/10/11 23:30:17;;;;;;;12.98;4.95;;;20.30;65.20;;;;;;10356483;28;20054;-38
2022/10/11 23:35:18;;;;;;;9.50;3.63;;;20.10;65.00;;;;;;10352377;28;20103;-38
2022/10/11 23:40:22;;;;;;;9.35;3.47;;;20.30;65.20;;;;;;10353188;28;20045;-37
2022/10/11 23:45:23;;;;;;;11.20;3.08;;;20.30;65.10;;;;;;10352933;28;20060;-38
2022/10/11 23:50:25;;;;;;;12.23;3.95;;;20.10;65.10;;;;;;10356057;28;20132;-39
2022/10/11 23:55:29;;;;;;;7.22;2.63;;;20.20;65.00;;;;;;10355914;28;20053;-38
